Time;durP1;ratioP1;P1;durP2;ratioP2;P2;SDS_P1;SDS_P2;PMS_P1;PMS_P2;Temp;Humidity;BMP_temperature;BMP_pressure;BME280_temperature;BME280_humidity;BME280_pressure;Samples;Min_cycle;Max_cycle;Signal;HPM_P1;HPM_P2
2021/01/19 00:02:19;;;;;;;53.35;22.88;;;;;;;-8.16;48.72;98946.97;10455705;28;20061;-48
2021/01/19 00:07:21;;;;;;;54.55;23.70;;;;;;;-8.13;48.73;98946.06;10456410;28;20045;-47
2021/01/19 00:12:24;;;;;;;47.78;20.92;;;;;;;-8.14;48.68;98947.78;10458752;28;20478;-53
2021/01/19 00:17:26;;;;;;;63.10;25.05;;;;;;;-8.13;48.77;98948.59;10457776;28;20156;-50
2021/01/19 00:22:29;;;;;;;59.28;25.13;;;;;;;-8.08;48.95;98951.06;10458211;28;20040;-48
2021/01/19 00:27:31;;;;;;;65.95;23.85;;;;;;;-8.07;48.94;98948.47;10456417;28;20049;-48
2021/01/19 00:32:32;;;;;;;74.80;25.80;;;;;;;-8.16;48.65;98941.88;10454905;28;20049;-47
2021/01/19 00:37:35;;;;;;;67.82;26.92;;;;;;;-8.15;49.10;98950.38;10454364;28;20135;-47
2021/01/19 00:42:37;;;;;;;49.53;20.60;;;;;;;-8.11;49.24;98951.97;10454732;28;20053;-49
2021/01/19 00:47:38;;;;;;;65.43;26.88;;;;;;;-8.09;49.23;98950.22;10466484;28;20060;-49
2021/01/19 00:52:41;;;;;;;60.92;25.20;;;;;;;-8.04;49.30;98950.13;10455237;28;20473;-47
2021/01/19 00:57:45;;;;;;;84.00;28.98;;;;;;;-7.97;49.13;98951.69;10455475;28;20044;-48
2021/01/19 01:02:47;;;;;;;69.80;26.23;;;;;;;-7.95;49.26;98955.84;10455346;28;20057;-48
2021/01/19 01:07:49;;;;;;;76.50;30.27;;;;;;;-7.97;49.13;98949.13;10455952;28;20061;-47
2021/01/19 01:12:51;;;;;;;71.70;29.40;;;;;;;-8.04;48.84;98950.13;10493754;28;20117;-50
2021/01/19 01:17:52;;;;;;;80.88;31.20;;;;;;;-8.06;48.86;98954.44;10476745;28;20080;-47
2021/01/19 01:22:55;;;;;;;77.15;28.50;;;;;;;-8.05;49.11;98946.72;10453862;28;20117;-48
2021/01/19 01:27:57;;;;;;;83.53;34.72;;;;;;;-8.03;48.52;98944.16;10456031;28;20536;-49
2021/01/19 01:32:58;;;;;;;84.88;32.88;;;;;;;-8.02;48.77;98951.75;10463761;28;20067;-52
2021/01/19 01:38:01;;;;;;;83.63;32.75;;;;;;;-8.07;48.88;98945.09;10463757;28;20389;-49
2021/01/19 01:43:11;;;;;;;74.18;29.58;;;;;;;-8.13;49.13;98948.59;10461519;28;20056;-48
2021/01/19 01:48:13;;;;;;;73.63;31.05;;;;;;;-8.10;48.94;98943.44;10461240;28;20074;-49
2021/01/19 01:53:16;;;;;;;76.88;31.65;;;;;;;-8.19;49.14;98946.19;10461151;28;20059;-49
2021/01/19 01:58:18;;;;;;;56.85;26.02;;;;;;;-8.23;49.02;98942.88;10462671;28;20421;-48
2021/01/19 02:03:19;;;;;;;68.63;26.25;;;;;;;-8.29;48.78;98942.16;10463566;28;20156;-57
2021/01/19 02:08:34;;;;;;;90.32;34.08;;;;;;;-8.31;48.85;98938.78;10462611;28;20126;-49
2021/01/19 02:13:44;;;;;;;77.00;28.45;;;;;;;-8.29;49.31;98942.16;10460389;28;20563;-47
2021/01/19 02:19:00;;;;;;;71.70;25.27;;;;;;;-8.24;49.53;98940.38;10460256;28;20049;-47
2021/01/19 02:24:10;;;;;;;66.55;24.58;;;;;;;-8.19;49.52;98930.88;10459601;28;20091;-47
2021/01/19 02:29:30;;;;;;;65.55;24.80;;;;;;;-8.10;49.53;98925.59;10461620;28;20041;-47
2021/01/19 02:34:43;;;;;;;57.97;22.58;;;;;;;-8.11;50.08;98927.31;10461819;28;20049;-49
2021/01/19 02:39:49;;;;;;;65.82;23.35;;;;;;;-8.17;49.99;98929.16;10460800;28;20500;-47
2021/01/19 02:44:52;;;;;;;68.70;26.00;;;;;;;-8.16;50.40;98925.72;10460389;28;20055;-50
2021/01/19 02:49:54;;;;;;;69.68;26.98;;;;;;;-8.03;49.84;98924.59;10458707;28;20052;-47
2021/01/19 02:54:57;;;;;;;63.03;26.17;;;;;;;-7.94;49.59;98926.09;10457280;28;20385;-48
2021/01/19 03:00:11;;;;;;;66.30;26.60;;;;;;;-7.93;49.88;98920.94;10453349;28;20386;-48
2021/01/19 03:05:14;;;;;;;66.43;28.02;;;;;;;-7.90;49.69;98918.31;10418706;28;20049;-47
2021/01/19 03:10:17;;;;;;;72.60;28.55;;;;;;;-7.81;49.12;98919.84;10418655;28;20079;-48
2021/01/19 03:15:19;;;;;;;63.33;25.40;;;;;;;-7.74;49.31;98926.47;10432546;28;20065;-47
2021/01/19 03:20:25;;;;;;;63.22;27.73;;;;;;;-7.71;49.66;98917.91;10456177;28;20049;-49
2021/01/19 03:25:27;;;;;;;70.70;26.88;;;;;;;-7.68;49.78;98911.00;10457223;28;20135;-47
2021/01/19 03:30:28;;;;;;;63.20;25.20;;;;;;;-7.64;49.65;98919.41;10457248;28;20147;-48
2021/01/19 03:35:31;;;;;;;64.38;25.17;;;;;;;-7.61;49.89;98911.69;10457872;28;20351;-53
2021/01/19 03:40:33;;;;;;;75.20;25.43;;;;;;;-7.58;49.65;98914.16;10458280;28;20567;-46
2021/01/19 03:45:35;;;;;;;72.75;27.98;;;;;;;-7.56;49.58;98902.22;10459478;28;20045;-47
2021/01/19 03:50:37;;;;;;;78.07;28.60;;;;;;;-7.56;49.83;98901.38;10457782;28;20511;-49
2021/01/19 03:55:39;;;;;;;71.80;28.02;;;;;;;-7.60;49.96;98907.41;10456191;28;20063;-48
2021/01/19 04:00:41;;;;;;;76.82;30.00;;;;;;;-7.65;50.13;98899.88;10455828;28;20064;-48
2021/01/19 04:05:43;;;;;;;73.25;29.50;;;;;;;-7.69;49.95;98904.22;10459072;28;20073;-48
2021/01/19 04:10:48;;;;;;;58.30;24.60;;;;;;;-7.59;49.91;98894.63;10456057;28;20080;-49
2021/01/19 04:15:50;;;;;;;82.72;31.17;;;;;;;-7.56;49.78;98897.09;10455340;28;20294;-49
2021/01/19 04:20:53;;;;;;;75.05;30.77;;;;;;;-7.55;49.51;98896.22;10455609;28;20052;-49
2021/01/19 04:25:55;;;;;;;58.28;23.73;;;;;;;-7.55;49.39;98900.50;10454673;28;20111;-47
2021/01/19 04:30:57;;;;;;;83.05;32.40;;;;;;;-7.58;49.24;98891.19;10454715;28;20052;-48
2021/01/19 04:35:59;;;;;;;69.15;29.98;;;;;;;-7.60;48.90;98892.97;10458409;28;20072;-48
2021/01/19 04:41:01;;;;;;;78.50;30.38;;;;;;;-7.60;48.57;98892.97;10457675;28;20095;-48
2021/01/19 04:46:04;;;;;;;65.97;30.25;;;;;;;-7.61;48.60;98895.53;10456839;28;20390;-48
2021/01/19 04:51:16;;;;;;;63.05;28.10;;;;;;;-7.66;48.85;98886.28;10457825;28;20048;-47
2021/01/19 04:56:21;;;;;;;54.80;23.80;;;;;;;-7.72;48.90;98894.09;10457782;28;20049;-48
2021/01/19 05:01:39;;;;;;;55.28;20.98;;;;;;;-7.80;49.21;98892.59;10457928;28;20052;-48
2021/01/19 05:07:33;;;;;;;66.57;26.73;;;;;;;-7.84;49.02;98896.09;10465871;28;20055;-48
2021/01/19 05:12:41;;;;;;;74.18;23.80;;;;;;;-7.86;49.39;98893.56;10380670;28;20046;-48
2021/01/19 05:17:44;;;;;;;44.17;18.63;;;;;;;-7.87;49.07;98895.28;10452328;28;20060;-47
2021/01/19 05:22:47;;;;;;;54.35;20.85;;;;;;;-7.92;49.69;98903.94;10466959;28;20470;-58
2021/01/19 05:27:49;;;;;;;52.92;20.83;;;;;;;-7.94;49.96;98908.25;10466607;28;20106;-49
2021/01/19 05:32:51;;;;;;;52.13;17.42;;;;;;;-8.03;50.08;98913.56;10465967;28;20406;-51
2021/01/19 05:37:57;;;;;;;68.38;24.83;;;;;;;-8.14;50.57;98917.16;10464628;28;20052;-55
2021/01/19 05:43:09;;;;;;;64.65;25.48;;;;;;;-8.06;50.48;98918.72;10464755;28;20053;-47
2021/01/19 05:48:15;;;;;;;79.00;29.17;;;;;;;-7.99;50.51;98916.00;10464827;28;20528;-47
2021/01/19 05:53:17;;;;;;;75.25;31.63;;;;;;;-7.90;50.31;98920.03;10464780;28;20099;-48
2021/01/19 05:58:19;;;;;;;72.93;30.98;;;;;;;-7.89;50.10;98917.44;10464283;28;20158;-47
2021/01/19 06:03:21;;;;;;;71.85;29.45;;;;;;;-7.89;50.03;98932.75;10463750;28;20068;-49
2021/01/19 06:08:24;;;;;;;75.50;28.83;;;;;;;-8.02;50.67;98935.63;10466978;28;20057;-48
2021/01/19 06:13:26;;;;;;;;;;;;;;;-8.17;50.69;98931.69;10463715;28;20389;-48
2021/01/19 06:18:36;;;;;;;79.22;27.77;;;;;;;-8.24;51.03;98943.75;10463152;28;19943;-47
2021/01/19 06:23:46;;;;;;;70.03;25.35;;;;;;;-8.22;51.10;98947.13;10463556;28;20416;-48
2021/01/19 06:28:48;;;;;;;78.57;29.95;;;;;;;-8.08;51.14;98946.81;10462968;28;20123;-47
2021/01/19 06:33:51;;;;;;;82.25;30.30;;;;;;;-7.90;50.84;98941.28;10462485;28;20063;-49
2021/01/19 06:38:54;;;;;;;77.50;32.22;;;;;;;-7.71;51.06;98940.88;10462399;28;20048;-50
2021/01/19 06:44:03;;;;;;;75.03;31.13;;;;;;;-7.58;50.66;98937.13;10462176;28;20048;-49
2021/01/19 06:49:07;;;;;;;75.28;32.95;;;;;;;-7.46;50.79;98939.41;10462065;28;20054;-48
2021/01/19 06:54:16;;;;;;;86.13;33.00;;;;;;;-7.31;51.09;98945.00;10462022;28;20397;-49
2021/01/19 06:59:31;;;;;;;76.03;31.45;;;;;;;-7.11;51.16;98942.81;10461916;28;20144;-50
2021/01/19 07:04:46;;;;;;;75.85;30.27;;;;;;;-6.93;50.94;98940.63;10462794;28;20056;-58
2021/01/19 07:10:08;;;;;;;73.10;28.52;;;;;;;-6.80;51.76;98936.88;10463232;28;20139;-49
2021/01/19 07:15:15;;;;;;;78.55;31.20;;;;;;;-6.67;51.93;98937.38;10461500;28;20103;-48
2021/01/19 07:20:29;;;;;;;77.80;33.08;;;;;;;-6.49;51.91;98934.31;10461436;28;20040;-49
2021/01/19 07:25:32;;;;;;;79.25;32.20;;;;;;;-6.34;51.87;98935.56;10460229;28;20041;-47
2021/01/19 07:30:33;;;;;;;76.47;31.80;;;;;;;-6.21;51.83;98942.03;10460480;28;20045;-52
2021/01/19 07:35:36;;;;;;;82.60;33.92;;;;;;;-6.08;51.83;98935.66;10460634;28;20102;-49
2021/01/19 07:40:45;;;;;;;56.57;26.83;;;;;;;-6.07;52.85;98939.88;10461174;28;20479;-48
2021/01/19 07:45:51;;;;;;;72.22;30.05;;;;;;;-5.93;53.22;98938.63;10460108;28;20123;-48
2021/01/19 07:50:53;;;;;;;73.10;31.35;;;;;;;-5.81;53.38;98949.31;10460247;28;20424;-49
2021/01/19 07:55:56;;;;;;;73.90;32.17;;;;;;;-5.84;53.90;98946.84;10459895;28;20056;-48
2021/01/19 08:00:57;;;;;;;54.50;22.40;;;;;;;-5.72;54.28;98944.78;10459240;28;20057;-49
2021/01/19 08:06:08;;;;;;;76.95;33.30;;;;;;;-5.46;54.04;98942.22;10459244;28;20087;-47
2021/01/19 08:11:21;;;;;;;78.55;32.13;;;;;;;-5.23;53.89;98938.09;10459763;28;20379;-49
2021/01/19 08:16:27;;;;;;;72.15;34.50;;;;;;;-5.07;53.70;98938.41;10460432;28;20119;-48
2021/01/19 08:21:33;;;;;;;68.65;31.42;;;;;;;-4.88;53.65;98940.28;10459363;28;20148;-47
2021/01/19 08:26:36;;;;;;;88.97;34.83;;;;;;;-4.75;53.65;98935.53;10461343;28;20041;-48
2021/01/19 08:31:38;;;;;;;78.55;34.58;;;;;;;-4.78;54.10;98935.66;10459633;28;20473;-48
2021/01/19 08:36:40;;;;;;;79.30;34.88;;;;;;;-4.58;54.84;98931.56;10457944;28;20453;-48
2021/01/19 08:41:44;;;;;;;85.80;33.97;;;;;;;-4.37;54.91;98935.06;10458195;28;20048;-49
2021/01/19 08:46:48;;;;;;;83.43;35.45;;;;;;;-4.34;55.13;98930.69;10456983;28;20064;-48
2021/01/19 08:51:51;;;;;;;71.82;33.30;;;;;;;-4.16;55.52;98934.25;10459292;28;20120;-50
2021/01/19 08:56:53;;;;;;;79.85;36.92;;;;;;;-3.88;55.45;98933.22;10458758;28;20083;-48
2021/01/19 09:01:55;;;;;;;75.45;36.55;;;;;;;-3.67;55.34;98916.97;10457314;28;20079;-49
2021/01/19 09:07:07;;;;;;;86.38;37.65;;;;;;;-3.55;55.50;98919.03;10458221;28;20068;-49
2021/01/19 09:12:17;;;;;;;78.90;37.25;;;;;;;-3.52;55.76;98921.47;10458036;28;20086;-49
2021/01/19 09:17:23;;;;;;;89.53;39.45;;;;;;;-3.37;55.69;98907.19;10458058;28;20045;-48
2021/01/19 09:22:28;;;;;;;91.05;38.30;;;;;;;-3.28;55.47;98904.22;10457487;28;20053;-49
2021/01/19 09:27:32;;;;;;;84.30;37.78;;;;;;;-3.21;55.71;98898.84;10457356;28;20128;-49
2021/01/19 09:32:34;;;;;;;86.25;39.85;;;;;;;-3.00;55.74;98903.06;10457811;28;20067;-49
2021/01/19 09:37:36;;;;;;;92.53;39.75;;;;;;;-2.91;55.40;98907.00;10457610;28;20110;-49
2021/01/19 09:42:39;;;;;;;74.70;37.35;;;;;;;-2.87;55.50;98896.50;10457435;28;20390;-49
2021/01/19 09:47:43;;;;;;;82.03;36.67;;;;;;;-3.06;55.06;98899.03;10458675;28;20131;-47
2021/01/19 09:52:46;;;;;;;88.35;40.75;;;;;;;-3.08;54.75;98892.28;10468470;28;20072;-55
2021/01/19 09:57:58;;;;;;;70.77;33.43;;;;;;;-3.12;54.48;98898.44;10467699;28;20049;-50
2021/01/19 10:03:09;;;;;;;80.55;38.97;;;;;;;-3.09;54.67;98898.31;10464664;28;20064;-49
2021/01/19 10:08:11;;;;;;;75.90;32.92;;;;;;;-3.11;54.65;98893.25;10464185;28;20044;-47
2021/01/19 10:13:13;;;;;;;78.88;35.70;;;;;;;-3.16;55.06;98891.78;10463947;28;20048;-48
2021/01/19 10:18:22;;;;;;;73.38;33.25;;;;;;;-3.12;54.46;98885.59;10464028;28;20143;-50
2021/01/19 10:23:28;;;;;;;62.83;28.48;;;;;;;-3.04;54.66;98894.66;10463971;28;20041;-49
2021/01/19 10:28:38;;;;;;;73.65;31.65;;;;;;;-3.08;54.41;98884.56;10464085;28;20426;-52
2021/01/19 10:33:55;;;;;;;58.28;29.23;;;;;;;-3.04;54.68;98876.66;10465085;28;20516;-48
2021/01/19 10:39:04;;;;;;;67.70;27.38;;;;;;;-3.07;54.52;98870.81;10464066;28;20063;-49
2021/01/19 10:44:11;;;;;;;53.30;26.27;;;;;;;-3.30;54.79;98867.47;10463651;28;20045;-49
2021/01/19 10:49:15;;;;;;;56.38;26.13;;;;;;;-3.71;55.11;98867.44;10463367;28;20040;-48
2021/01/19 10:54:17;;;;;;;51.67;25.50;;;;;;;-3.77;55.45;98854.84;10468118;28;20370;-56
2021/01/19 10:59:20;;;;;;;45.35;23.30;;;;;;;-3.55;55.31;98851.41;10464572;28;20470;-49
2021/01/19 11:04:21;;;;;;;51.83;24.30;;;;;;;-3.46;55.61;98843.31;10461468;28;20076;-48
2021/01/19 11:09:23;;;;;;;44.50;21.05;;;;;;;-3.37;54.98;98832.66;10460486;28;20045;-49
2021/01/19 11:14:25;;;;;;;43.17;21.83;;;;;;;-3.34;55.07;98836.84;10462213;28;20052;-49
2021/01/19 11:19:27;;;;;;;35.92;19.15;;;;;;;-3.24;54.77;98838.09;10463817;28;20191;-56
2021/01/19 11:24:29;;;;;;;44.70;21.95;;;;;;;-3.27;54.53;98818.50;10462196;28;20429;-48
2021/01/19 11:29:32;;;;;;;57.20;23.02;;;;;;;-3.24;54.67;98812.41;10460987;28;20540;-48
2021/01/19 11:34:33;;;;;;;53.60;21.97;;;;;;;-3.29;54.15;98810.03;10460930;28;20067;-47
2021/01/19 11:39:35;;;;;;;43.70;21.73;;;;;;;-3.38;54.16;98809.59;10461123;28;20056;-49
2021/01/19 11:44:38;;;;;;;44.83;21.73;;;;;;;-3.55;53.42;98800.03;10460599;28;20371;-47
2021/01/19 11:49:39;;;;;;;43.63;18.33;;;;;;;-3.70;53.33;98804.91;10461017;28;20067;-47
2021/01/19 11:54:41;;;;;;;35.80;16.50;;;;;;;-3.72;53.58;98804.16;10460311;28;20500;-49
2021/01/19 11:59:44;;;;;;;38.20;16.98;;;;;;;-3.74;53.05;98797.41;10459732;28;20044;-49
2021/01/19 12:04:46;;;;;;;44.27;18.07;;;;;;;-3.82;53.09;98804.56;10459408;28;20128;-49
2021/01/19 12:09:48;;;;;;;31.63;14.48;;;;;;;-3.90;52.60;98807.47;10460020;28;20486;-49
2021/01/19 12:14:50;;;;;;;27.88;13.30;;;;;;;-4.09;52.47;98802.25;10457836;28;20049;-48
2021/01/19 12:19:52;;;;;;;27.90;11.87;;;;;;;-4.21;52.39;98806.13;10459342;28;20056;-47
2021/01/19 12:24:54;;;;;;;23.20;10.52;;;;;;;-4.29;52.63;98800.44;10459073;28;20053;-47
2021/01/19 12:29:56;;;;;;;19.77;8.98;;;;;;;-4.33;52.94;98806.59;10459416;28;20362;-48
2021/01/19 12:34:58;;;;;;;16.50;7.47;;;;;;;-4.32;53.02;98831.38;10464813;28;20053;-49
2021/01/19 12:40:00;;;;;;;18.77;6.28;;;;;;;-4.45;52.74;98820.75;10492122;28;20045;-49
2021/01/19 12:45:04;;;;;;;15.05;7.18;;;;;;;-4.56;52.81;98829.72;10459869;28;20045;-49
2021/01/19 12:50:06;;;;;;;13.43;6.05;;;;;;;-4.63;52.94;98817.13;10460062;28;20049;-48
2021/01/19 12:55:09;;;;;;;12.80;5.05;;;;;;;-4.58;52.87;98829.81;10459445;28;20045;-53
2021/01/19 13:00:13;;;;;;;17.60;6.37;;;;;;;-4.70;53.08;98825.13;10458029;28;20524;-48
2021/01/19 13:05:15;;;;;;;15.70;5.95;;;;;;;-4.71;52.97;98823.44;10458035;28;20047;-50
2021/01/19 13:10:16;;;;;;;12.93;5.78;;;;;;;-4.74;52.86;98824.41;10457694;28;20481;-48
2021/01/19 13:15:19;;;;;;;13.73;6.05;;;;;;;-4.81;52.74;98828.06;10458558;28;20095;-48
2021/01/19 13:20:21;;;;;;;15.13;5.80;;;;;;;-4.91;52.95;98842.13;10462148;28;20393;-48
2021/01/19 13:25:23;;;;;;;16.52;6.07;;;;;;;-5.04;53.17;98836.63;10503386;28;20782;-50
2021/01/19 13:30:27;;;;;;;13.35;5.72;;;;;;;-5.10;52.47;98840.22;10506849;28;20041;-48
2021/01/19 13:35:28;;;;;;;15.15;6.22;;;;;;;-5.15;51.82;98856.66;10507121;28;20059;-49
2021/01/19 13:40:30;;;;;;;15.52;6.55;;;;;;;-5.33;52.50;98850.44;10508133;28;20080;-52
2021/01/19 13:45:33;;;;;;;16.83;7.05;;;;;;;-5.35;52.52;98847.94;10508100;28;20087;-47
2021/01/19 13:50:35;;;;;;;16.65;5.82;;;;;;;-5.37;52.77;98854.00;10506555;28;20198;-48
2021/01/19 13:55:36;;;;;;;15.25;5.68;;;;;;;-5.40;52.52;98847.25;10506105;28;20048;-48
2021/01/19 14:00:39;;;;;;;13.07;4.50;;;;;;;-5.37;52.79;98854.00;10505968;28;20060;-49
2021/01/19 14:05:40;;;;;;;7.50;3.57;;;;;;;-5.39;52.68;98848.94;10505567;28;20117;-48
2021/01/19 14:10:42;;;;;;;9.60;4.35;;;;;;;-5.44;52.62;98850.81;10506361;28;20171;-52
2021/01/19 14:15:45;;;;;;;11.98;4.03;;;;;;;-5.48;52.49;98841.56;10509396;28;20079;-49
2021/01/19 14:20:46;;;;;;;18.30;6.70;;;;;;;-5.58;52.67;98853.00;10511504;28;20064;-51
2021/01/19 14:25:48;;;;;;;15.93;6.35;;;;;;;-5.55;52.05;98835.78;10507209;28;20211;-51
2021/01/19 14:30:51;;;;;;;13.88;6.55;;;;;;;-5.59;51.91;98846.19;10504011;28;20052;-48
2021/01/19 14:35:53;;;;;;;14.77;6.00;;;;;;;-5.68;52.60;98849.91;10504588;28;20040;-48
2021/01/19 14:40:56;;;;;;;16.23;7.57;;;;;;;-5.66;52.08;98847.31;10504429;28;20140;-49
2021/01/19 14:45:58;;;;;;;;;;;;;;;-5.65;52.15;98856.66;10505612;28;20538;-50
2021/01/19 14:51:00;;;;;;;16.83;6.53;;;;;;;-5.72;52.08;98853.47;10504363;28;19939;-49
2021/01/19 14:56:02;;;;;;;16.90;8.38;;;;;;;-5.82;52.29;98847.81;10505209;28;20139;-50
2021/01/19 15:01:05;;;;;;;14.38;6.30;;;;;;;-5.85;52.30;98844.47;10505893;28;20057;-47
2021/01/19 15:06:07;;;;;;;15.67;6.90;;;;;;;-5.89;52.78;98846.31;10501888;28;20470;-51
2021/01/19 15:11:12;;;;;;;15.35;5.90;;;;;;;-5.93;52.78;98842.22;10502891;28;20052;-49
2021/01/19 15:16:15;;;;;;;16.15;6.00;;;;;;;-5.90;53.21;98839.53;10502794;28;20389;-49
2021/01/19 15:21:16;;;;;;;13.30;5.87;;;;;;;-5.89;52.99;98830.94;10503367;28;20139;-50
2021/01/19 15:26:18;;;;;;;15.80;5.93;;;;;;;-5.97;52.98;98832.97;10502353;28;20051;-48
2021/01/19 15:31:21;;;;;;;18.17;6.00;;;;;;;-5.99;52.81;98844.13;10502508;28;20052;-48
2021/01/19 15:36:23;;;;;;;12.40;5.23;;;;;;;-5.93;52.85;98843.94;10495934;28;20049;-48
2021/01/19 15:41:26;;;;;;;14.55;5.80;;;;;;;-5.97;52.78;98834.66;10455383;28;20048;-48
2021/01/19 15:46:29;;;;;;;17.50;6.80;;;;;;;-6.08;52.77;98830.75;10457436;28;20045;-49
2021/01/19 15:51:32;;;;;;;14.77;5.85;;;;;;;-6.13;53.12;98842.81;10458804;28;20053;-49
2021/01/19 15:56:36;;;;;;;16.25;6.82;;;;;;;-6.19;52.57;98858.38;10458235;28;20143;-47
2021/01/19 16:01:39;;;;;;;13.70;5.97;;;;;;;-6.20;53.02;98861.81;10429471;28;20541;-49
2021/01/19 16:06:41;;;;;;;15.77;6.97;;;;;;;-6.12;52.67;98866.72;10417016;28;20120;-47
2021/01/19 16:11:43;;;;;;;17.25;7.15;;;;;;;-6.13;52.47;98863.28;10432447;28;20428;-48
2021/01/19 16:16:51;;;;;;;17.20;6.60;;;;;;;-6.11;52.51;98856.44;10456840;28;20084;-48
2021/01/19 16:21:53;;;;;;;16.52;7.05;;;;;;;-6.05;52.36;98856.22;10453947;28;20056;-49
2021/01/19 16:26:56;;;;;;;16.52;7.07;;;;;;;-6.04;52.35;98857.91;10454244;28;20474;-50
2021/01/19 16:31:58;;;;;;;;;;;;;;;-6.06;52.58;98875.03;10451163;28;20052;-48
2021/01/19 16:37:00;;;;;;;15.15;6.13;;;;;;;-6.07;52.41;98860.53;10453000;28;19928;-47
2021/01/19 16:42:02;;;;;;;19.90;7.60;;;;;;;-6.14;52.42;98871.88;10452708;28;20063;-48
2021/01/19 16:47:04;;;;;;;12.82;6.05;;;;;;;-6.10;52.61;98873.44;10454699;28;20128;-49
2021/01/19 16:52:06;;;;;;;15.23;6.50;;;;;;;-6.13;52.17;98862.47;10457161;28;20067;-47
2021/01/19 16:57:10;;;;;;;16.52;7.68;;;;;;;-6.11;52.58;98883.72;10433632;28;20052;-49
2021/01/19 17:02:15;;;;;;;16.08;7.45;;;;;;;-6.02;52.25;98881.72;10452741;28;20543;-49
2021/01/19 17:07:16;;;;;;;23.10;10.32;;;;;;;-5.97;51.99;98873.06;10454123;28;20076;-52
2021/01/19 17:12:19;;;;;;;21.08;8.98;;;;;;;-6.10;52.43;98886.22;10454277;28;20616;-48
2021/01/19 17:17:22;;;;;;;19.23;8.52;;;;;;;-6.08;52.52;98876.78;10449271;28;20057;-48
2021/01/19 17:22:24;;;;;;;;;;;;;;;-5.91;52.51;98867.72;10452318;28;20143;-49
2021/01/19 17:27:26;;;;;;;21.50;9.25;;;;;;;-5.91;52.49;98857.47;10452953;28;20356;-49
2021/01/19 17:32:29;;;;;;;21.85;9.57;;;;;;;-5.88;53.07;98872.72;10453416;28;20083;-48
2021/01/19 17:37:31;;;;;;;24.17;8.60;;;;;;;-5.84;53.03;98869.22;10453423;28;20056;-47
2021/01/19 17:42:33;;;;;;;26.63;9.85;;;;;;;-5.85;52.35;98868.38;10455539;28;20143;-50
2021/01/19 17:47:40;;;;;;;22.10;8.75;;;;;;;-5.78;52.45;98869.00;10451313;28;20040;-48
2021/01/19 17:52:43;;;;;;;24.85;9.50;;;;;;;-5.79;52.12;98870.75;10449857;28;20469;-48
2021/01/19 17:57:47;;;;;;;18.73;7.93;;;;;;;-5.84;52.38;98871.78;10452120;28;20048;-50
2021/01/19 18:02:49;;;;;;;20.45;8.20;;;;;;;-5.87;52.96;98859.06;10449426;28;20478;-50
2021/01/19 18:07:52;;;;;;;20.73;8.38;;;;;;;-5.94;53.04;98862.72;10450387;28;20132;-50
2021/01/19 18:12:55;;;;;;;18.90;7.22;;;;;;;-6.00;52.29;98857.81;10470816;28;20045;-48
2021/01/19 18:17:58;;;;;;;11.37;6.13;;;;;;;-6.02;52.98;98852.75;10480970;28;20074;-50
2021/01/19 18:23:00;;;;;;;16.88;7.28;;;;;;;-5.96;52.87;98860.22;10480582;28;20547;-49
2021/01/19 18:28:03;;;;;;;22.25;9.25;;;;;;;-5.89;52.85;98859.09;10448916;28;20144;-48
2021/01/19 18:33:06;;;;;;;23.92;8.85;;;;;;;-5.86;52.44;98865.84;10424684;28;20072;-48
2021/01/19 18:38:07;;;;;;;21.27;8.37;;;;;;;-5.85;52.48;98862.41;10421470;28;20088;-48
2021/01/19 18:43:09;;;;;;;20.35;8.30;;;;;;;-5.83;52.54;98860.63;10456607;28;20325;-48
2021/01/19 18:48:12;;;;;;;19.17;8.60;;;;;;;-5.75;52.54;98863.78;10461980;28;20063;-49
2021/01/19 18:53:13;;;;;;;19.83;9.07;;;;;;;-5.74;52.54;98852.66;10460124;28;20052;-48
2021/01/19 18:58:15;;;;;;;19.55;9.25;;;;;;;-5.62;52.75;98859.94;10458945;28;20456;-49
2021/01/19 19:03:18;;;;;;;23.35;8.50;;;;;;;-5.58;52.96;98855.56;10462051;28;20140;-54
2021/01/19 19:08:19;;;;;;;22.00;8.47;;;;;;;-5.58;52.83;98861.50;10458368;28;20049;-49
2021/01/19 19:13:21;;;;;;;17.65;7.30;;;;;;;-5.58;52.37;98851.25;10458201;28;20128;-48
2021/01/19 19:18:24;;;;;;;25.88;7.82;;;;;;;-5.53;52.34;98852.84;10456144;28;20052;-49
2021/01/19 19:23:25;;;;;;;16.10;6.23;;;;;;;-5.57;52.63;98858.06;10458071;28;20091;-50
2021/01/19 19:28:27;;;;;;;16.38;7.72;;;;;;;-5.50;52.75;98860.44;10454082;28;20052;-50
2021/01/19 19:33:30;;;;;;;22.27;8.50;;;;;;;-5.51;52.70;98861.28;10454976;28;20109;-55
2021/01/19 19:38:32;;;;;;;19.97;7.37;;;;;;;-5.59;52.66;98862.41;10453593;28;20045;-47
2021/01/19 19:43:36;;;;;;;18.25;6.88;;;;;;;-5.60;53.00;98854.78;10456428;28;20430;-47
2021/01/19 19:48:38;;;;;;;25.70;8.90;;;;;;;-5.56;52.78;98862.28;10457695;28;20049;-53
2021/01/19 19:53:40;;;;;;;18.60;7.43;;;;;;;-5.52;52.94;98864.75;10458131;28;20044;-47
2021/01/19 19:58:42;;;;;;;20.50;8.43;;;;;;;-5.46;53.02;98865.38;10459205;28;20428;-58
2021/01/19 20:03:44;;;;;;;18.33;7.05;;;;;;;-5.37;53.12;98861.69;10461768;28;20152;-49
2021/01/19 20:08:46;;;;;;;16.47;6.70;;;;;;;-5.31;53.63;98858.91;10456534;28;20053;-48
2021/01/19 20:13:48;;;;;;;17.08;6.50;;;;;;;-5.24;53.32;98857.81;10456222;28;20395;-47
2021/01/19 20:18:50;;;;;;;13.70;6.03;;;;;;;-5.23;53.76;98850.97;10456256;28;20190;-48
2021/01/19 20:23:52;;;;;;;16.97;6.73;;;;;;;-5.14;53.36;98864.31;10455381;28;20052;-47
2021/01/19 20:28:54;;;;;;;14.25;6.40;;;;;;;-5.10;53.49;98863.28;10455774;28;20500;-47
2021/01/19 20:33:58;;;;;;;14.38;6.03;;;;;;;-5.19;53.88;98866.19;10454304;28;20433;-47
2021/01/19 20:39:00;;;;;;;13.98;5.10;;;;;;;-5.07;53.82;98867.47;10457082;28;20363;-48
2021/01/19 20:44:01;;;;;;;22.15;7.38;;;;;;;-5.04;53.53;98871.66;10454893;28;20102;-47
2021/01/19 20:49:04;;;;;;;19.05;6.60;;;;;;;-5.02;54.09;98869.88;10454962;28;20053;-47
2021/01/19 20:54:06;;;;;;;11.07;4.27;;;;;;;-5.05;54.33;98869.97;10455384;28;20398;-48
2021/01/19 20:59:08;;;;;;;13.23;5.68;;;;;;;-4.98;54.21;98866.31;10455125;28;20361;-47
2021/01/19 21:04:11;;;;;;;15.55;5.75;;;;;;;-4.96;54.47;98874.78;10453347;28;20059;-49
2021/01/19 21:09:12;;;;;;;17.77;6.73;;;;;;;-4.88;54.18;98867.66;10454485;28;20182;-48
2021/01/19 21:14:14;;;;;;;10.82;4.63;;;;;;;-4.87;54.12;98879.56;10454199;28;20048;-50
2021/01/19 21:19:17;;;;;;;16.42;6.22;;;;;;;-4.83;54.05;98870.03;10451616;28;20443;-50
2021/01/19 21:24:18;;;;;;;11.17;4.47;;;;;;;-4.79;54.10;98872.47;10454332;28;20508;-49
2021/01/19 21:29:20;;;;;;;14.73;5.35;;;;;;;-4.77;53.82;98874.94;10453484;28;20063;-48
2021/01/19 21:34:23;;;;;;;15.85;5.10;;;;;;;-4.84;53.99;98874.34;10455325;28;20060;-49
2021/01/19 21:39:24;;;;;;;11.53;4.97;;;;;;;-4.87;54.29;98871.88;10455584;28;20468;-53
2021/01/19 21:44:26;;;;;;;15.77;5.50;;;;;;;-4.84;54.66;98869.22;10460753;28;20132;-48
2021/01/19 21:49:29;;;;;;;14.40;5.93;;;;;;;-4.75;54.46;98876.56;10461068;28;20060;-49
2021/01/19 21:54:30;;;;;;;14.47;5.93;;;;;;;-4.78;54.24;98869.00;10461925;28;20104;-50
2021/01/19 21:59:32;;;;;;;13.60;5.35;;;;;;;-4.82;54.42;98848.66;10461975;28;20053;-49
2021/01/19 22:04:35;;;;;;;11.50;5.35;;;;;;;-4.80;54.18;98857.97;10460537;28;20056;-48
2021/01/19 22:09:36;;;;;;;8.17;4.23;;;;;;;-4.83;53.73;98865.78;10461681;28;20492;-49
2021/01/19 22:14:38;;;;;;;15.40;6.32;;;;;;;-4.77;53.53;98857.88;10461327;28;20411;-48
2021/01/19 22:19:41;;;;;;;15.70;6.85;;;;;;;-4.80;53.36;98865.66;10460403;28;20501;-48
2021/01/19 22:24:42;;;;;;;16.07;5.17;;;;;;;-4.79;53.35;98867.31;10459824;28;20552;-50
2021/01/19 22:29:44;;;;;;;14.45;5.88;;;;;;;-4.73;53.11;98861.97;10460617;28;20057;-49
2021/01/19 22:34:47;;;;;;;12.43;5.82;;;;;;;-4.72;53.05;98857.69;10459314;28;20055;-48
2021/01/19 22:39:49;;;;;;;13.15;5.88;;;;;;;-4.81;53.77;98863.97;10459782;28;20045;-49
2021/01/19 22:44:51;;;;;;;13.30;5.43;;;;;;;-4.72;54.02;98858.50;10459386;28;20503;-48
2021/01/19 22:49:53;;;;;;;18.20;6.43;;;;;;;-4.58;53.79;98849.50;10459860;28;20151;-50
2021/01/19 22:54:55;;;;;;;21.23;8.97;;;;;;;-4.51;53.99;98853.50;10459083;28;20366;-48
2021/01/19 22:59:57;;;;;;;18.92;8.48;;;;;;;-4.50;54.05;98857.72;10460639;28;20053;-48
2021/01/19 23:04:59;;;;;;;29.45;12.30;;;;;;;-4.43;53.62;98854.88;10459258;28;20386;-48
2021/01/19 23:10:01;;;;;;;14.23;7.20;;;;;;;-4.43;53.69;98862.56;10459478;28;20049;-50